createdAt,value
2023-03-21T00:00:32.535Z,6.80
2023-03-21T00:01:34.376Z,7.85
2023-03-21T00:02:36.106Z,6.28
2023-03-21T00:03:38.268Z,5.70
2023-03-21T00:04:50.886Z,7.40
2023-03-21T00:05:54.308Z,8.48
2023-03-21T00:06:56.412Z,5.97
2023-03-21T00:07:59.510Z,5.82
2023-03-21T00:09:02.335Z,8.02
2023-03-21T00:10:14.436Z,7.63
2023-03-21T00:11:17.619Z,5.93
2023-03-21T00:12:21.151Z,6.50
2023-03-21T00:13:23.210Z,5.75
2023-03-21T00:14:26.130Z,6.40
2023-03-21T00:15:41.148Z,8.10
2023-03-21T00:16:52.201Z,7.05
2023-03-21T00:18:03.453Z,6.25
2023-03-21T00:19:06.451Z,7.10
2023-03-21T00:20:15.603Z,6.88
2023-03-21T00:22:42.231Z,6.97
2023-03-21T00:23:44.520Z,6.32
2023-03-21T00:24:46.515Z,6.93
2023-03-21T00:25:48.198Z,6.30
2023-03-21T00:26:51.351Z,6.97
2023-03-21T00:28:07.228Z,8.00
2023-03-21T00:29:09.924Z,7.03
2023-03-21T00:30:13.874Z,6.40
2023-03-21T00:31:16.071Z,6.88
2023-03-21T00:32:19.422Z,6.90
2023-03-21T00:33:22.919Z,8.02
2023-03-21T00:34:36.555Z,6.40
2023-03-21T00:36:02.421Z,7.82
2023-03-21T00:37:10.090Z,7.90
2023-03-21T00:38:12.411Z,8.32
2023-03-21T00:39:15.409Z,7.10
2023-03-21T00:40:26.605Z,6.20
2023-03-21T00:41:41.983Z,7.15
2023-03-21T00:42:44.395Z,7.95
2023-03-21T00:43:46.294Z,6.03
2023-03-21T00:44:48.680Z,8.05
2023-03-21T00:45:51.688Z,6.85
2023-03-21T00:47:06.212Z,7.47
2023-03-21T00:48:09.070Z,6.32
2023-03-21T00:49:11.047Z,7.95
2023-03-21T00:50:13.014Z,8.00
2023-03-21T00:51:27.135Z,7.22
2023-03-21T00:52:40.128Z,9.65
2023-03-21T00:53:42.902Z,6.90
2023-03-21T00:54:44.744Z,9.15
2023-03-21T00:55:46.598Z,6.57
2023-03-21T00:56:48.321Z,8.32
2023-03-21T00:57:56.103Z,7.55
2023-03-21T00:59:01.538Z,8.32
2023-03-21T01:00:06.534Z,8.32
2023-03-21T01:01:09.893Z,8.10
2023-03-21T01:02:15.202Z,8.05
2023-03-21T01:03:24.969Z,7.43
2023-03-21T01:04:28.706Z,8.13
2023-03-21T01:05:50.928Z,7.03
2023-03-21T01:06:53.888Z,7.45
2023-03-21T01:07:56.052Z,6.65
2023-03-21T01:08:57.848Z,8.07
2023-03-21T01:10:01.302Z,9.02
2023-03-21T01:11:15.008Z,8.27
2023-03-21T01:12:16.915Z,7.22
2023-03-21T01:13:20.751Z,8.10
2023-03-21T01:14:24.099Z,7.75
2023-03-21T01:15:26.056Z,7.50
2023-03-21T01:16:28.134Z,7.95
2023-03-21T01:17:30.176Z,9.05
2023-03-21T01:18:33.067Z,9.25
2023-03-21T01:19:50.749Z,9.00
2023-03-21T01:20:55.139Z,9.15
2023-03-21T01:21:58.060Z,9.75
2023-03-21T01:22:59.772Z,7.50
2023-03-21T01:24:01.955Z,8.13
2023-03-21T01:25:21.293Z,9.90
2023-03-21T01:26:24.274Z,11.07
2023-03-21T01:27:26.028Z,9.55
2023-03-21T01:28:29.474Z,7.55
2023-03-21T01:29:31.293Z,9.18
2023-03-21T01:30:37.050Z,7.78
2023-03-21T01:31:43.526Z,14.55
2023-03-21T01:32:45.322Z,10.00
2023-03-21T01:33:47.650Z,7.40
2023-03-21T01:34:49.862Z,6.68
2023-03-21T01:35:57.573Z,7.57
2023-03-21T01:37:08.217Z,8.57
2023-03-21T01:38:10.563Z,7.22
2023-03-21T01:39:12.300Z,11.35
2023-03-21T01:40:21.690Z,7.03
2023-03-21T01:41:42.334Z,8.45
2023-03-21T01:42:45.778Z,10.00
2023-03-21T01:43:48.186Z,7.45
2023-03-21T01:44:59.983Z,7.40
2023-03-21T01:46:22.692Z,8.02
2023-03-21T01:47:25.187Z,8.60
2023-03-21T01:48:29.112Z,9.30
2023-03-21T01:49:41.742Z,7.15
2023-03-21T01:50:43.820Z,8.52
2023-03-21T01:52:01.104Z,8.35
2023-03-21T01:53:05.630Z,7.57
2023-03-21T01:54:15.040Z,6.47
2023-03-21T01:55:18.212Z,5.32
2023-03-21T01:56:28.478Z,10.63
2023-03-21T01:57:49.416Z,9.00
2023-03-21T01:59:08.340Z,7.35
2023-03-21T02:00:13.092Z,9.85
2023-03-21T02:01:15.976Z,6.63
2023-03-21T02:02:28.099Z,8.85
2023-03-21T02:03:38.272Z,5.63
2023-03-21T02:04:40.933Z,8.57
2023-03-21T02:06:02.694Z,8.65
2023-03-21T02:07:07.525Z,9.77
2023-03-21T02:08:09.316Z,7.47
2023-03-21T02:09:18.370Z,7.13
2023-03-21T02:10:22.157Z,8.15
2023-03-21T02:11:24.647Z,7.90
2023-03-21T02:12:27.259Z,7.20
2023-03-21T02:13:29.002Z,7.45
2023-03-21T02:14:33.355Z,7.07
2023-03-21T02:15:38.553Z,8.20
2023-03-21T02:16:55.446Z,7.18
2023-03-21T02:18:07.432Z,6.82
2023-03-21T02:19:31.987Z,7.10
2023-03-21T02:20:54.469Z,8.80
2023-03-21T02:22:07.401Z,10.00
2023-03-21T02:23:18.010Z,6.85
2023-03-21T02:24:46.285Z,8.60
2023-03-21T02:25:53.639Z,9.23
2023-03-21T02:27:04.717Z,8.43
2023-03-21T02:28:36.039Z,6.88
2023-03-21T02:29:50.091Z,6.72
2023-03-21T02:31:00.408Z,8.27
2023-03-21T02:32:37.328Z,7.97
2023-03-21T02:34:03.291Z,8.07
2023-03-21T02:35:52.522Z,9.60
2023-03-21T02:37:17.113Z,7.63
2023-03-21T02:38:32.202Z,7.47
2023-03-21T02:39:40.098Z,6.85
2023-03-21T02:41:18.360Z,7.20
2023-03-21T02:42:44.946Z,9.50
2023-03-21T02:44:04.398Z,8.80
2023-03-21T02:45:14.687Z,8.20
2023-03-21T02:46:26.169Z,6.55
2023-03-21T02:47:42.834Z,8.27
2023-03-21T02:49:01.877Z,7.57
2023-03-21T02:50:21.920Z,5.82
2023-03-21T02:51:26.139Z,7.10
2023-03-21T02:52:39.002Z,8.82
2023-03-21T02:53:51.726Z,7.20
2023-03-21T02:55:01.053Z,9.55
2023-03-21T02:56:04.602Z,8.75
2023-03-21T02:57:06.832Z,7.75
2023-03-21T02:58:13.492Z,7.60
2023-03-21T02:59:17.848Z,9.52
2023-03-21T03:00:24.825Z,8.68
2023-03-21T03:01:26.962Z,7.18
2023-03-21T03:02:31.182Z,8.32
2023-03-21T03:03:35.175Z,7.95
2023-03-21T03:04:37.087Z,5.88
2023-03-21T03:05:49.836Z,9.57
2023-03-21T03:07:04.674Z,7.15
2023-03-21T03:09:01.405Z,9.15
2023-03-21T03:10:25.581Z,9.15
2023-03-21T03:11:36.711Z,8.65
2023-03-21T03:12:44.266Z,6.90
2023-03-21T03:16:00.497Z,10.57
2023-03-21T03:17:08.096Z,8.55
2023-03-21T03:18:33.630Z,9.23
2023-03-21T03:19:50.682Z,8.10
2023-03-21T03:21:19.858Z,8.50
2023-03-21T03:22:34.032Z,8.50
2023-03-21T03:23:47.547Z,7.80
2023-03-21T03:25:18.609Z,8.57
2023-03-21T03:26:28.261Z,6.68
2023-03-21T03:27:37.085Z,8.45
2023-03-21T03:28:44.267Z,7.45
2023-03-21T03:29:48.868Z,9.38
2023-03-21T03:31:07.669Z,6.70
2023-03-21T03:32:25.776Z,7.35
2023-03-21T03:33:30.035Z,9.80
2023-03-21T03:34:41.500Z,6.70
2023-03-21T03:35:48.307Z,7.55
2023-03-21T03:39:13.681Z,7.82
2023-03-21T03:40:39.355Z,11.45
2023-03-21T03:43:24.340Z,8.35
2023-03-21T03:44:28.366Z,7.47
2023-03-21T03:45:54.818Z,7.53
2023-03-21T03:47:01.920Z,8.13
2023-03-21T03:48:15.013Z,6.85
2023-03-21T03:49:23.930Z,6.32
2023-03-21T03:50:42.256Z,6.85
2023-03-21T03:52:02.438Z,8.48
2023-03-21T03:53:18.647Z,7.40
2023-03-21T03:54:53.577Z,7.78
2023-03-21T03:55:56.649Z,6.55
2023-03-21T03:56:58.575Z,6.53
2023-03-21T03:58:03.228Z,7.93
2023-03-21T03:59:07.427Z,9.10
2023-03-21T04:00:15.904Z,8.65
2023-03-21T04:01:18.111Z,8.95
2023-03-21T04:02:20.635Z,6.43
2023-03-21T04:03:22.760Z,6.82
2023-03-21T04:04:29.556Z,7.60
2023-03-21T04:05:31.273Z,10.60
2023-03-21T04:06:33.206Z,7.15
2023-03-21T04:07:35.288Z,9.93
2023-03-21T04:08:37.755Z,8.20
2023-03-21T04:09:44.659Z,8.40
2023-03-21T04:10:46.822Z,7.32
2023-03-21T04:11:48.794Z,9.93
2023-03-21T04:12:50.793Z,6.82
2023-03-21T04:13:52.777Z,8.13
2023-03-21T04:14:57.085Z,7.50
2023-03-21T04:16:08.036Z,10.48
2023-03-21T04:17:11.326Z,8.15
2023-03-21T04:18:13.163Z,7.55
2023-03-21T04:19:16.224Z,8.35
2023-03-21T04:20:26.657Z,8.75
2023-03-21T04:21:38.123Z,10.00
2023-03-21T04:22:41.060Z,7.63
2023-03-21T04:23:42.931Z,5.78
2023-03-21T04:24:45.086Z,8.77
2023-03-21T04:25:55.995Z,7.55
2023-03-21T04:26:58.566Z,9.60
2023-03-21T04:28:00.417Z,7.85
2023-03-21T04:29:03.438Z,8.18
2023-03-21T04:30:06.409Z,7.55
2023-03-21T04:31:24.530Z,8.57
2023-03-21T04:32:28.090Z,10.18
2023-03-21T04:33:29.879Z,7.55
2023-03-21T04:34:31.610Z,9.27
2023-03-21T04:35:37.081Z,8.57
2023-03-21T04:36:43.211Z,9.10
2023-03-21T04:37:45.342Z,8.48
2023-03-21T04:38:48.704Z,8.15
2023-03-21T04:39:51.253Z,7.03
2023-03-21T04:40:53.073Z,7.10
2023-03-21T04:41:54.778Z,8.63
2023-03-21T04:42:57.155Z,11.00
2023-03-21T04:43:58.971Z,8.68
2023-03-21T04:45:01.261Z,7.10
2023-03-21T04:46:03.193Z,8.23
2023-03-21T04:47:05.222Z,8.10
2023-03-21T04:48:07.103Z,8.90
2023-03-21T04:49:09.307Z,9.20
2023-03-21T04:50:11.854Z,7.38
2023-03-21T04:51:14.040Z,8.02
2023-03-21T04:52:16.295Z,8.95
2023-03-21T04:53:18.989Z,7.95
2023-03-21T04:54:21.082Z,7.97
2023-03-21T04:55:25.334Z,10.40
2023-03-21T04:56:32.548Z,7.53
2023-03-21T04:57:34.358Z,9.88
2023-03-21T04:58:37.144Z,9.45
2023-03-21T04:59:38.884Z,8.23
2023-03-21T05:00:40.954Z,7.05
2023-03-21T05:01:44.097Z,8.07
2023-03-21T05:02:46.307Z,7.40
2023-03-21T05:03:48.129Z,8.68
2023-03-21T05:04:49.822Z,7.38
2023-03-21T05:05:51.760Z,7.25
2023-03-21T05:06:54.540Z,11.68
2023-03-21T05:07:56.259Z,9.98
2023-03-21T05:09:05.247Z,9.07
2023-03-21T05:10:10.294Z,9.23
2023-03-21T05:11:11.990Z,8.02
2023-03-21T05:12:13.668Z,7.18
2023-03-21T05:13:15.516Z,7.88
2023-03-21T05:14:20.792Z,9.93
2023-03-21T05:15:22.718Z,10.02
2023-03-21T05:16:27.214Z,7.65
2023-03-21T05:17:29.554Z,9.00
2023-03-21T05:18:35.052Z,7.55
2023-03-21T05:19:40.750Z,10.07
2023-03-21T05:20:42.923Z,8.07
2023-03-21T05:21:45.157Z,7.90
2023-03-21T05:22:50.262Z,9.40
2023-03-21T05:23:54.524Z,9.32
2023-03-21T05:24:56.828Z,9.38
2023-03-21T05:25:58.751Z,9.10
2023-03-21T05:27:04.528Z,7.60
2023-03-21T05:28:08.053Z,9.25
2023-03-21T05:29:11.285Z,9.00
2023-03-21T05:30:16.209Z,8.38
2023-03-21T05:31:18.921Z,9.75
2023-03-21T05:32:21.843Z,8.40
2023-03-21T05:33:23.825Z,8.88
2023-03-21T05:34:25.656Z,8.65
2023-03-21T05:35:28.297Z,10.15
2023-03-21T05:36:30.152Z,10.48
2023-03-21T05:37:31.898Z,10.18
2023-03-21T05:38:34.168Z,8.18
2023-03-21T05:39:36.195Z,10.80
2023-03-21T05:40:38.040Z,9.43
2023-03-21T05:41:39.771Z,9.50
2023-03-21T05:42:41.748Z,10.70
2023-03-21T05:43:43.566Z,10.05
2023-03-21T05:44:47.257Z,8.13
2023-03-21T05:45:49.084Z,7.57
2023-03-21T05:46:50.717Z,7.68
2023-03-21T05:47:52.667Z,10.85
2023-03-21T05:48:54.921Z,9.70
2023-03-21T05:49:56.651Z,9.85
2023-03-21T05:50:58.360Z,12.45
2023-03-21T05:52:00.282Z,11.60
2023-03-21T05:53:02.238Z,12.48
2023-03-21T05:54:03.952Z,12.02
2023-03-21T05:55:06.341Z,11.15
2023-03-21T05:56:08.640Z,11.80
2023-03-21T05:57:10.939Z,11.57
2023-03-21T05:58:12.882Z,11.32
2023-03-21T05:59:14.623Z,12.07
2023-03-21T06:00:18.156Z,10.13
2023-03-21T06:01:19.933Z,9.65
2023-03-21T06:02:21.868Z,8.98
2023-03-21T06:03:23.747Z,10.80
2023-03-21T06:04:25.692Z,13.73
2023-03-21T06:05:28.026Z,11.38
2023-03-21T06:06:29.789Z,10.95
2023-03-21T06:07:31.692Z,9.75
2023-03-21T06:08:33.354Z,11.05
2023-03-21T06:09:35.084Z,10.07
2023-03-21T06:10:37.167Z,11.32
2023-03-21T06:11:42.378Z,10.85
2023-03-21T06:12:44.371Z,9.23
2023-03-21T06:13:48.971Z,9.73
2023-03-21T06:14:50.663Z,8.40
2023-03-21T06:15:52.824Z,7.75
2023-03-21T06:16:54.534Z,8.13
2023-03-21T06:17:56.177Z,11.25
2023-03-21T06:18:57.909Z,9.57
2023-03-21T06:20:01.115Z,7.70
2023-03-21T06:21:02.796Z,6.70
2023-03-21T06:22:04.414Z,8.73
2023-03-21T06:23:06.343Z,10.25
2023-03-21T06:24:08.562Z,8.02
2023-03-21T06:25:10.528Z,9.80
2023-03-21T06:26:12.562Z,8.88
2023-03-21T06:27:14.306Z,9.60
2023-03-21T06:28:16.252Z,13.18
2023-03-21T06:29:17.909Z,10.98
2023-03-21T06:30:19.829Z,12.38
2023-03-21T06:31:22.873Z,10.93
2023-03-21T06:32:25.496Z,11.55
2023-03-21T06:33:27.386Z,8.85
2023-03-21T06:34:29.001Z,10.15
2023-03-21T06:35:30.685Z,9.60
2023-03-21T06:36:32.550Z,10.50
2023-03-21T06:37:34.216Z,9.38
2023-03-21T06:38:38.021Z,10.43
2023-03-21T06:39:40.180Z,9.20
2023-03-21T06:40:41.942Z,12.27
2023-03-21T06:41:43.862Z,9.93
2023-03-21T06:42:45.534Z,11.85
2023-03-21T06:43:48.686Z,9.20
2023-03-21T06:44:50.508Z,9.10
2023-03-21T06:45:52.156Z,10.57
2023-03-21T06:46:53.999Z,11.00
2023-03-21T06:47:55.662Z,11.02
2023-03-21T06:48:57.293Z,9.90
2023-03-21T06:49:58.922Z,12.90
2023-03-21T06:51:00.597Z,10.90
2023-03-21T06:52:02.469Z,11.43
2023-03-21T06:53:04.264Z,11.50
2023-03-21T06:54:07.078Z,11.60
2023-03-21T06:55:09.277Z,7.88
2023-03-21T06:56:12.108Z,12.05
2023-03-21T06:57:13.921Z,10.52
2023-03-21T06:58:15.931Z,14.35
2023-03-21T06:59:17.905Z,13.35
2023-03-21T07:00:21.513Z,10.60
2023-03-21T07:01:23.739Z,10.88
2023-03-21T07:02:26.034Z,10.20
2023-03-21T07:03:28.034Z,11.20
2023-03-21T07:04:29.934Z,10.25
2023-03-21T07:05:36.440Z,9.77
2023-03-21T07:06:38.896Z,9.10
2023-03-21T07:07:41.104Z,8.93
2023-03-21T07:08:45.226Z,9.65
2023-03-21T07:09:46.865Z,9.95
2023-03-21T07:10:48.737Z,7.53
2023-03-21T07:11:53.429Z,9.48
2023-03-21T07:12:55.158Z,8.90
2023-03-21T07:13:57.153Z,9.40
2023-03-21T07:14:58.993Z,8.82
2023-03-21T07:16:00.955Z,9.85
2023-03-21T07:17:04.057Z,9.95
2023-03-21T07:18:06.979Z,8.55
2023-03-21T07:19:08.630Z,10.30
2023-03-21T07:20:12.646Z,9.88
2023-03-21T07:21:14.586Z,9.50
2023-03-21T07:22:16.590Z,10.38
2023-03-21T07:23:22.973Z,8.93
2023-03-21T07:24:25.028Z,8.73
2023-03-21T07:25:29.067Z,7.93
2023-03-21T07:26:32.013Z,8.73
2023-03-21T07:27:33.789Z,9.13
2023-03-21T07:28:35.724Z,9.52
2023-03-21T07:29:38.101Z,9.57
2023-03-21T07:30:39.973Z,9.18
2023-03-21T07:31:41.842Z,9.25
2023-03-21T07:32:45.839Z,9.57
2023-03-21T07:33:47.439Z,8.07
2023-03-21T07:34:50.600Z,7.38
2023-03-21T07:35:54.054Z,8.75
2023-03-21T07:36:57.044Z,8.98
2023-03-21T07:37:58.705Z,7.35
2023-03-21T07:39:00.746Z,9.13
2023-03-21T07:40:02.997Z,9.90
2023-03-21T07:41:04.849Z,9.13
2023-03-21T07:42:06.834Z,11.02
2023-03-21T07:43:08.548Z,8.68
2023-03-21T07:44:10.283Z,8.93
2023-03-21T07:45:16.501Z,8.30
2023-03-21T07:46:20.202Z,8.38
2023-03-21T07:47:23.308Z,7.50
2023-03-21T07:48:25.038Z,10.10
2023-03-21T07:49:27.153Z,8.18
2023-03-21T07:50:29.392Z,7.05
2023-03-21T07:51:31.287Z,9.35
2023-03-21T07:52:33.367Z,9.15
2023-03-21T07:53:35.404Z,9.05
2023-03-21T07:54:37.060Z,8.80
2023-03-21T07:55:39.035Z,7.22
2023-03-21T07:56:41.617Z,6.78
2023-03-21T07:57:46.074Z,8.38
2023-03-21T07:58:47.754Z,7.97
2023-03-21T07:59:51.846Z,9.85
2023-03-21T08:00:55.565Z,8.10
2023-03-21T08:01:57.956Z,7.47
2023-03-21T08:03:01.279Z,9.10
2023-03-21T08:04:03.009Z,6.97
2023-03-21T08:05:05.084Z,6.60
2023-03-21T08:06:07.213Z,8.23
2023-03-21T08:07:09.285Z,9.02
2023-03-21T08:08:12.731Z,6.65
2023-03-21T08:09:14.612Z,7.53
2023-03-21T08:10:17.121Z,6.97
2023-03-21T08:11:22.129Z,8.88
2023-03-21T08:12:23.992Z,8.80
2023-03-21T08:13:26.136Z,6.28
2023-03-21T08:14:27.913Z,8.50
2023-03-21T08:15:29.707Z,7.85
2023-03-21T08:16:32.013Z,11.73
2023-03-21T08:17:36.302Z,9.57
2023-03-21T08:18:38.445Z,8.70
2023-03-21T08:19:40.140Z,8.18
2023-03-21T08:20:42.121Z,8.80
2023-03-21T08:21:46.989Z,6.78
2023-03-21T08:22:49.519Z,9.18
2023-03-21T08:23:51.419Z,6.90
2023-03-21T08:24:53.112Z,6.88
2023-03-21T08:25:55.815Z,6.97
2023-03-21T08:26:57.617Z,6.50
2023-03-21T08:27:59.334Z,6.75
2023-03-21T08:29:01.036Z,7.82
2023-03-21T08:30:04.222Z,7.65
2023-03-21T08:31:11.857Z,8.93
2023-03-21T08:32:13.757Z,10.15
2023-03-21T08:33:18.598Z,7.57
2023-03-21T08:34:20.569Z,7.65
2023-03-21T08:35:24.908Z,7.15
2023-03-21T08:36:28.360Z,6.45
2023-03-21T08:37:30.707Z,8.75
2023-03-21T08:38:34.459Z,7.65
2023-03-21T08:39:37.503Z,6.25
2023-03-21T08:40:39.235Z,6.53
2023-03-21T08:41:41.107Z,5.75
2023-03-21T08:42:44.941Z,5.65
2023-03-21T08:43:46.869Z,6.47
2023-03-21T08:44:50.569Z,6.65
2023-03-21T08:45:52.575Z,6.85
2023-03-21T08:46:54.405Z,6.55
2023-03-21T08:47:57.389Z,7.35
2023-03-21T08:48:59.282Z,6.65
2023-03-21T08:50:01.215Z,6.50
2023-03-21T08:51:04.479Z,8.52
2023-03-21T08:52:06.264Z,9.65
2023-03-21T08:53:07.948Z,6.68
2023-03-21T08:54:20.673Z,5.15
2023-03-21T08:55:22.362Z,7.32
2023-03-21T08:56:24.140Z,5.97
2023-03-21T08:57:25.832Z,7.10
2023-03-21T08:58:27.546Z,6.70
2023-03-21T08:59:29.412Z,5.53
2023-03-21T09:00:31.061Z,7.05
2023-03-21T09:01:33.779Z,8.73
2023-03-21T09:02:35.475Z,8.73
2023-03-21T09:03:38.778Z,8.55
2023-03-21T09:04:40.801Z,8.02
2023-03-21T09:05:45.511Z,5.00
2023-03-21T09:06:48.830Z,7.18
2023-03-21T09:07:50.480Z,5.90
2023-03-21T09:08:53.568Z,7.75
2023-03-21T09:10:14.909Z,8.20
2023-03-21T09:11:16.934Z,5.93
2023-03-21T09:12:19.293Z,5.47
2023-03-21T09:13:21.686Z,5.50
2023-03-21T09:14:28.443Z,6.13
2023-03-21T09:15:30.571Z,6.53
2023-03-21T09:16:33.277Z,6.35
2023-03-21T09:17:35.424Z,7.25
2023-03-21T09:18:48.770Z,9.10
2023-03-21T09:19:53.240Z,8.63
2023-03-21T09:20:56.436Z,8.07
2023-03-21T09:21:58.342Z,7.40
2023-03-21T09:23:01.635Z,6.57
2023-03-21T09:24:06.654Z,7.47
2023-03-21T09:25:11.268Z,6.53
2023-03-21T09:26:13.669Z,6.20
2023-03-21T09:27:19.089Z,6.20
2023-03-21T09:28:21.037Z,7.03
2023-03-21T09:29:23.182Z,8.20
2023-03-21T09:30:26.489Z,4.97
2023-03-21T09:31:28.677Z,5.25
2023-03-21T09:32:30.506Z,6.65
2023-03-21T09:33:33.246Z,6.30
2023-03-21T09:34:37.340Z,5.55
2023-03-21T09:35:39.424Z,6.07
2023-03-21T09:36:42.289Z,6.50
2023-03-21T09:37:45.067Z,5.05
2023-03-21T09:38:49.424Z,5.18
2023-03-21T09:39:52.120Z,6.47
2023-03-21T09:41:25.108Z,6.22
2023-03-21T09:42:32.422Z,6.20
2023-03-21T09:43:53.823Z,5.60
2023-03-21T09:45:10.232Z,5.03
2023-03-21T09:46:45.923Z,5.57
2023-03-21T09:47:53.852Z,5.70
2023-03-21T09:49:02.004Z,5.00
2023-03-21T09:50:42.312Z,5.35
2023-03-21T09:51:48.840Z,5.90
2023-03-21T09:53:00.444Z,5.10
2023-03-21T09:54:19.566Z,5.00
2023-03-21T09:55:26.510Z,4.85
2023-03-21T09:56:28.425Z,5.28
2023-03-21T09:57:36.634Z,5.70
2023-03-21T09:58:46.489Z,6.72
2023-03-21T09:59:51.119Z,5.80
2023-03-21T10:01:01.392Z,4.85
2023-03-21T10:02:04.348Z,6.55
2023-03-21T10:03:29.724Z,6.45
2023-03-21T10:04:32.478Z,4.07
2023-03-21T10:05:39.644Z,4.63
2023-03-21T10:06:43.892Z,5.13
2023-03-21T10:08:00.161Z,5.40
2023-03-21T10:09:22.973Z,5.40
2023-03-21T10:10:32.768Z,4.50
2023-03-21T10:11:48.871Z,4.45
2023-03-21T10:12:54.017Z,4.78
2023-03-21T10:14:00.405Z,5.03
2023-03-21T10:15:06.491Z,4.25
2023-03-21T10:16:30.907Z,4.65
2023-03-21T10:17:43.493Z,4.78
2023-03-21T10:18:47.257Z,4.68
2023-03-21T10:19:56.055Z,5.10
2023-03-21T10:20:58.643Z,4.63
2023-03-21T10:22:02.711Z,4.88
2023-03-21T10:23:08.657Z,4.35
2023-03-21T10:24:25.539Z,4.38
2023-03-21T10:25:33.624Z,4.22
2023-03-21T10:26:37.013Z,5.65
2023-03-21T10:27:38.878Z,4.57
2023-03-21T10:28:52.292Z,4.65
2023-03-21T10:29:57.736Z,4.53
2023-03-21T10:31:05.626Z,4.78
2023-03-21T10:32:15.753Z,5.30
2023-03-21T10:33:26.686Z,3.70
2023-03-21T10:34:32.986Z,8.20
2023-03-21T10:35:37.507Z,7.47
2023-03-21T10:36:39.960Z,6.50
2023-03-21T10:37:41.947Z,7.80
2023-03-21T10:38:48.984Z,4.05
2023-03-21T10:39:53.774Z,4.25
2023-03-21T10:40:56.294Z,6.65
2023-03-21T10:41:58.822Z,4.95
2023-03-21T10:43:30.230Z,4.00
2023-03-21T10:44:38.069Z,5.00
2023-03-21T10:45:40.245Z,5.65
2023-03-21T10:46:59.631Z,5.68
2023-03-21T10:48:07.571Z,4.72
2023-03-21T10:49:09.505Z,5.20
2023-03-21T10:50:17.814Z,7.40
2023-03-21T10:51:22.451Z,4.07
2023-03-21T10:52:28.619Z,4.90
2023-03-21T10:53:35.898Z,4.55
2023-03-21T10:54:37.843Z,4.50
2023-03-21T10:55:43.235Z,5.00
2023-03-21T10:57:13.479Z,4.65
2023-03-21T10:58:19.138Z,4.80
2023-03-21T10:59:22.708Z,6.05
2023-03-21T11:00:29.096Z,6.15
2023-03-21T11:01:41.938Z,4.85
2023-03-21T11:02:49.651Z,5.22
2023-03-21T11:04:01.744Z,5.22
2023-03-21T11:05:33.012Z,4.35
2023-03-21T11:06:39.188Z,5.10
2023-03-21T11:07:41.689Z,5.22
2023-03-21T11:08:49.379Z,4.75
2023-03-21T11:09:57.459Z,5.70
2023-03-21T11:11:05.707Z,4.10
2023-03-21T11:12:13.458Z,5.47
2023-03-21T11:13:27.500Z,4.75
2023-03-21T11:14:37.165Z,5.82
2023-03-21T11:15:54.789Z,3.63
2023-03-21T11:16:56.513Z,5.43
2023-03-21T11:18:00.180Z,4.90
2023-03-21T11:19:11.652Z,5.68
2023-03-21T11:20:21.381Z,4.78
2023-03-21T11:21:29.639Z,4.88
2023-03-21T11:22:43.724Z,3.72
2023-03-21T11:23:48.618Z,4.10
2023-03-21T11:24:54.102Z,5.32
2023-03-21T11:25:58.838Z,4.68
2023-03-21T11:27:01.864Z,5.18
2023-03-21T11:28:16.904Z,6.03
2023-03-21T11:29:41.197Z,3.90
2023-03-21T11:30:58.570Z,4.50
2023-03-21T11:32:08.762Z,3.97
2023-03-21T11:33:12.306Z,5.30
2023-03-21T11:34:28.201Z,4.15
2023-03-21T11:35:37.025Z,4.40
2023-03-21T11:36:39.346Z,4.65
2023-03-21T11:37:47.056Z,5.13
2023-03-21T11:38:58.521Z,5.53
2023-03-21T11:40:25.134Z,4.35
2023-03-21T11:41:32.285Z,3.50
2023-03-21T11:42:42.364Z,3.83
2023-03-21T11:43:52.293Z,4.95
2023-03-21T11:45:16.479Z,4.75
2023-03-21T11:46:24.590Z,4.00
2023-03-21T11:47:26.479Z,4.80
2023-03-21T11:48:29.199Z,4.65
2023-03-21T11:49:31.503Z,3.60
2023-03-21T11:50:39.829Z,6.32
2023-03-21T11:52:06.653Z,4.15
2023-03-21T11:53:46.745Z,3.78
2023-03-21T11:55:31.994Z,4.10
2023-03-21T11:56:43.981Z,4.35
2023-03-21T11:58:16.747Z,4.05
2023-03-21T11:59:43.401Z,5.07
2023-03-21T12:01:01.285Z,3.25
2023-03-21T12:02:17.807Z,4.57
2023-03-21T12:03:47.131Z,3.97
2023-03-21T12:05:20.436Z,4.00
2023-03-21T12:06:28.775Z,6.35
2023-03-21T12:07:45.429Z,5.22
2023-03-21T12:08:59.057Z,4.93
2023-03-21T12:10:35.612Z,6.38
2023-03-21T12:11:42.883Z,4.50
2023-03-21T12:13:08.914Z,4.65
2023-03-21T12:14:13.752Z,3.90
2023-03-21T12:15:19.030Z,4.82
2023-03-21T12:16:41.311Z,4.65
2023-03-21T12:18:25.591Z,6.20
2023-03-21T12:19:56.185Z,5.22
2023-03-21T12:21:20.462Z,5.32
2023-03-21T12:22:27.257Z,5.13
2023-03-21T12:23:50.516Z,4.20
2023-03-21T12:24:55.149Z,4.00
2023-03-21T12:26:23.502Z,4.80
2023-03-21T12:28:03.009Z,6.28
2023-03-21T12:29:15.000Z,5.22
2023-03-21T12:30:21.193Z,6.43
2023-03-21T12:31:34.065Z,4.90
2023-03-21T12:33:09.475Z,5.28
2023-03-21T12:34:19.239Z,5.40
2023-03-21T12:35:46.847Z,5.95
2023-03-21T12:37:22.740Z,5.30
2023-03-21T12:38:32.835Z,4.00
2023-03-21T12:39:37.039Z,4.47
2023-03-21T12:40:51.048Z,4.85
2023-03-21T12:41:58.620Z,4.25
2023-03-21T12:43:17.643Z,5.05
2023-03-21T12:44:29.123Z,5.15
2023-03-21T12:45:47.108Z,4.25
2023-03-21T12:46:58.367Z,4.82
2023-03-21T12:48:41.386Z,4.20
2023-03-21T12:49:52.887Z,3.88
2023-03-21T12:50:59.914Z,6.75
2023-03-21T12:52:11.932Z,5.50
2023-03-21T12:53:30.152Z,6.38
2023-03-21T12:54:41.848Z,5.60
2023-03-21T12:55:44.349Z,5.18
2023-03-21T12:56:55.441Z,4.82
2023-03-21T12:58:13.574Z,4.60
2023-03-21T12:59:38.961Z,5.13
2023-03-21T13:00:52.917Z,5.88
2023-03-21T13:01:59.786Z,4.43
2023-03-21T13:03:30.247Z,4.43
2023-03-21T13:04:52.580Z,5.35
2023-03-21T13:05:58.454Z,5.25
2023-03-21T13:07:03.546Z,5.95
2023-03-21T13:08:21.047Z,5.13
2023-03-21T13:09:38.336Z,4.30
2023-03-21T13:10:43.520Z,5.03
2023-03-21T13:11:46.638Z,4.05
2023-03-21T13:12:58.637Z,5.65
2023-03-21T13:14:14.999Z,5.00
2023-03-21T13:15:38.555Z,5.00
2023-03-21T13:16:43.501Z,4.70
2023-03-21T13:18:01.398Z,4.18
2023-03-21T13:19:29.848Z,4.93
2023-03-21T13:20:43.500Z,4.30
2023-03-21T13:21:50.823Z,5.05
2023-03-21T13:22:54.011Z,5.50
2023-03-21T13:24:04.752Z,3.50
2023-03-21T13:25:20.067Z,4.75
2023-03-21T13:26:33.324Z,5.63
2023-03-21T13:27:37.160Z,7.07
2023-03-21T13:28:46.672Z,4.30
2023-03-21T13:29:58.139Z,4.40
2023-03-21T13:31:19.972Z,6.45
2023-03-21T13:32:45.954Z,3.95
2023-03-21T13:33:53.744Z,4.35
2023-03-21T13:35:13.902Z,3.80
2023-03-21T13:36:22.675Z,4.30
2023-03-21T13:37:29.202Z,4.93
2023-03-21T13:38:35.026Z,4.95
2023-03-21T13:39:45.785Z,3.90
2023-03-21T13:41:03.652Z,4.85
2023-03-21T13:42:16.516Z,4.60
2023-03-21T13:43:38.402Z,4.40
2023-03-21T13:44:43.272Z,4.20
2023-03-21T13:45:52.163Z,6.15
2023-03-21T13:46:59.643Z,4.88
2023-03-21T13:48:07.437Z,3.85
2023-03-21T13:49:09.411Z,4.55
2023-03-21T13:50:24.622Z,4.80
2023-03-21T13:51:32.064Z,5.03
2023-03-21T13:52:34.093Z,5.07
2023-03-21T13:53:46.362Z,5.15
2023-03-21T13:54:57.982Z,4.85
2023-03-21T13:56:10.056Z,5.97
2023-03-21T13:57:28.075Z,5.18
2023-03-21T13:58:48.279Z,4.32
2023-03-21T13:59:50.124Z,5.00
2023-03-21T14:01:11.187Z,4.50
2023-03-21T14:02:37.739Z,4.43
2023-03-21T14:03:41.561Z,5.25
2023-03-21T14:05:00.303Z,4.60
2023-03-21T14:06:07.023Z,4.25
2023-03-21T14:07:12.824Z,4.25
2023-03-21T14:08:27.797Z,4.20
2023-03-21T14:09:42.695Z,5.38
2023-03-21T14:10:49.056Z,4.32
2023-03-21T14:11:54.705Z,4.75
2023-03-21T14:13:00.142Z,3.40
2023-03-21T14:14:04.262Z,5.22
2023-03-21T14:15:19.385Z,3.80
2023-03-21T14:16:25.915Z,4.47
2023-03-21T14:17:33.181Z,6.70
2023-03-21T14:18:59.546Z,4.60
2023-03-21T14:20:13.068Z,4.78
2023-03-21T14:21:24.356Z,4.63
2023-03-21T14:22:27.086Z,5.82
2023-03-21T14:23:29.218Z,4.55
2023-03-21T14:24:30.930Z,6.10
2023-03-21T14:25:44.368Z,4.35
2023-03-21T14:26:52.131Z,5.43
2023-03-21T14:28:00.681Z,4.75
2023-03-21T14:29:12.345Z,4.22
2023-03-21T14:30:34.786Z,3.80
2023-03-21T14:31:39.513Z,5.60
2023-03-21T14:32:41.891Z,5.10
2023-03-21T14:33:52.328Z,4.90
2023-03-21T14:34:58.677Z,5.00
2023-03-21T14:36:06.487Z,4.60
2023-03-21T14:37:11.580Z,5.88
2023-03-21T14:38:25.624Z,5.22
2023-03-21T14:39:31.014Z,5.00
2023-03-21T14:40:33.086Z,5.45
2023-03-21T14:41:45.532Z,4.18
2023-03-21T14:42:48.771Z,4.60
2023-03-21T14:44:02.724Z,5.07
2023-03-21T14:45:28.243Z,5.35
2023-03-21T14:46:32.196Z,5.22
2023-03-21T14:47:39.102Z,4.47
2023-03-21T14:48:40.800Z,4.00
2023-03-21T14:49:42.736Z,4.28
2023-03-21T14:50:57.527Z,5.07
2023-03-21T14:52:05.027Z,5.32
2023-03-21T14:53:15.739Z,4.50
2023-03-21T14:54:18.838Z,5.30
2023-03-21T14:55:20.816Z,4.03
2023-03-21T14:56:25.727Z,4.20
2023-03-21T14:57:31.574Z,4.93
2023-03-21T14:58:34.869Z,4.97
2023-03-21T14:59:39.234Z,4.32
2023-03-21T15:00:41.569Z,5.65
2023-03-21T15:01:47.717Z,4.50
2023-03-21T15:02:49.476Z,4.88
2023-03-21T15:03:52.157Z,5.55
2023-03-21T15:04:57.489Z,4.75